地図

経路データ

SID SEASON NUMBER BASIN SUBBASIN NAME ISO_TIME NATURE LAT LON WMO_WIND WMO_PRES WMO_AGENCY TRACK_TYPE DIST2LAND LANDFALL IFLAG USA_AGENCY USA_ATCF_ID USA_LAT USA_LON USA_RECORD USA_STATUS USA_WIND USA_PRES USA_SSHS USA_R34_NE USA_R34_SE USA_R34_SW USA_R34_NW USA_R50_NE USA_R50_SE USA_R50_SW USA_R50_NW USA_R64_NE USA_R64_SE USA_R64_SW USA_R64_NW USA_POCI USA_ROCI USA_RMW USA_EYE TOKYO_LAT TOKYO_LON TOKYO_GRADE TOKYO_WIND TOKYO_PRES TOKYO_R50_DIR TOKYO_R50_LONG TOKYO_R50_SHORT TOKYO_R30_DIR TOKYO_R30_LONG TOKYO_R30_SHORT TOKYO_LAND CMA_LAT CMA_LON CMA_CAT CMA_WIND CMA_PRES HKO_LAT HKO_LON HKO_CAT HKO_WIND HKO_PRES NEWDELHI_LAT NEWDELHI_LON NEWDELHI_GRADE NEWDELHI_WIND NEWDELHI_PRES NEWDELHI_CI NEWDELHI_DP NEWDELHI_POCI REUNION_LAT REUNION_LON REUNION_TYPE REUNION_WIND REUNION_PRES REUNION_TNUM REUNION_CI REUNION_RMW REUNION_R34_NE REUNION_R34_SE REUNION_R34_SW REUNION_R34_NW REUNION_R50_NE REUNION_R50_SE REUNION_R50_SW REUNION_R50_NW REUNION_R64_NE REUNION_R64_SE REUNION_R64_SW REUNION_R64_NW BOM_LAT BOM_LON BOM_TYPE BOM_WIND BOM_PRES BOM_TNUM BOM_CI BOM_RMW BOM_R34_NE BOM_R34_SE BOM_R34_SW BOM_R34_NW BOM_R50_NE BOM_R50_SE BOM_R50_SW BOM_R50_NW BOM_R64_NE BOM_R64_SE BOM_R64_SW BOM_R64_NW BOM_ROCI BOM_POCI BOM_EYE BOM_POS_METHOD BOM_PRES_METHOD NADI_LAT NADI_LON NADI_CAT NADI_WIND NADI_PRES WELLINGTON_LAT WELLINGTON_LON WELLINGTON_WIND WELLINGTON_PRES DS824_LAT DS824_LON DS824_STAGE DS824_WIND DS824_PRES TD9636_LAT TD9636_LON TD9636_STAGE TD9636_WIND TD9636_PRES TD9635_LAT TD9635_LON TD9635_WIND TD9635_PRES TD9635_ROCI NEUMANN_LAT NEUMANN_LON NEUMANN_CLASS NEUMANN_WIND NEUMANN_PRES MLC_LAT MLC_LON MLC_CLASS MLC_WIND MLC_PRES USA_GUST BOM_GUST BOM_GUST_PER REUNION_GUST REUNION_GUST_PER USA_SEAHGT USA_SEARAD_NE USA_SEARAD_SE USA_SEARAD_SW USA_SEARAD_NW STORM_SPEED STORM_DIR
1889284N18137 1889 31 WP MM NOT_NAMED 1889-10-11 04:00:00 NR 18.3000 136.700 main 1381 1350 __________O___ -1 18.3000 136.700 7 10 286
1889284N18137 1889 31 WP MM NOT_NAMED 1889-10-11 06:00:00 NR 18.3965 136.347 main 1350 1310 __________P___ -1 18.3965 136.347 7 10 286
1889284N18137 1889 31 WP MM NOT_NAMED 1889-10-11 09:00:00 NR 18.5420 135.819 main 1310 1277 __________P___ -1 18.5420 135.819 7 10 286
1889284N18137 1889 31 WP MM NOT_NAMED 1889-10-11 12:00:00 NR 18.6909 135.293 main 1277 1237 __________P___ -1 18.6909 135.293 7 10 287
1889284N18137 1889 31 WP MM NOT_NAMED 1889-10-11 15:00:00 NR 18.8463 134.772 main 1237 1223 __________P___ -1 18.8463 134.772 7 10 288
1889284N18137 1889 31 WP MM NOT_NAMED 1889-10-11 16:00:00 NR 18.9000 134.600 main 1223 1199 __________O___ -1 18.9000 134.600 7 10 289
1889284N18137 1889 31 WP MM NOT_NAMED 1889-10-11 18:00:00 NR 19.0108 134.259 main 1199 1164 __________P___ -1 19.0108 134.259 7 10 290
1889284N18137 1889 31 WP MM NOT_NAMED 1889-10-11 21:00:00 NR 19.1835 133.759 main 1164 1124 __________P___ -1 19.1835 133.759 7 10 291
1889284N18137 1889 31 WP MM NOT_NAMED 1889-10-12 00:00:00 NR 19.3611 133.283 main 1130 1092 __________P___ -1 19.3611 133.283 7 9 292
1889284N18137 1889 31 WP MM NOT_NAMED 1889-10-12 03:00:00 NR 19.5404 132.839 main 1092 1089 __________P___ -1 19.5404 132.839 7 9 294
1889284N18137 1889 31 WP MM NOT_NAMED 1889-10-12 04:00:00 NR 19.6000 132.700 main 1089 1070 __________O___ -1 19.6000 132.700 3 8 294
1889284N18137 1889 31 WP MM NOT_NAMED 1889-10-12 06:00:00 NR 19.7109 132.440 main 1070 1041 __________P___ -1 19.7109 132.440 3 8 296
1889284N18137 1889 31 WP MM NOT_NAMED 1889-10-12 09:00:00 NR 19.8776 132.083 main 1042 1004 __________P___ -1 19.8776 132.083 3 7 297
1889284N18137 1889 31 WP MM NOT_NAMED 1889-10-12 12:00:00 NR 20.0501 131.747 main 1004 975 __________P___ -1 20.0501 131.747 3 7 300
1889284N18137 1889 31 WP MM NOT_NAMED 1889-10-12 15:00:00 NR 20.2347 131.414 main 975 967 __________P___ -1 20.2347 131.414 3 7 301
1889284N18137 1889 31 WP MM NOT_NAMED 1889-10-12 16:00:00 NR 20.3000 131.300 main 967 949 __________O___ -1 20.3000 131.300 4 8 298
1889284N18137 1889 31 WP MM NOT_NAMED 1889-10-12 18:00:00 NR 20.4149 131.050 main 949 914 __________P___ -1 20.4149 131.050 4 8 297
1889284N18137 1889 31 WP MM NOT_NAMED 1889-10-12 21:00:00 NR 20.5995 130.669 main 914 879 __________P___ -1 20.5995 130.669 4 8 300
1889284N18137 1889 31 WP MM NOT_NAMED 1889-10-13 00:00:00 NR 20.8180 130.289 main 879 850 __________P___ -1 20.8180 130.289 4 9 305
1889284N18137 1889 31 WP MM NOT_NAMED 1889-10-13 03:00:00 NR 21.0924 129.919 main 850 844 __________P___ -1 21.0924 129.919 4 9 310
1889284N18137 1889 31 WP MM NOT_NAMED 1889-10-13 04:00:00 NR 21.2000 129.800 main 844 823 __________O___ -1 21.2000 129.800 4 10 314
1889284N18137 1889 31 WP MM NOT_NAMED 1889-10-13 06:00:00 NR 21.4409 129.533 main 823 790 __________P___ -1 21.4409 129.533 4 11 317
1889284N18137 1889 31 WP MM NOT_NAMED 1889-10-13 09:00:00 NR 21.8588 129.145 main 790 745 __________P___ -1 21.8588 129.145 4 11 323
1889284N18137 1889 31 WP MM NOT_NAMED 1889-10-13 12:00:00 NR 22.3278 128.806 main 745 707 __________P___ -1 22.3278 128.806 4 11 331
1889284N18137 1889 31 WP MM NOT_NAMED 1889-10-13 15:00:00 NR 22.8290 128.556 main 707 691 __________P___ -1 22.8290 128.556 4 11 337
1889284N18137 1889 31 WP MM NOT_NAMED 1889-10-13 16:00:00 NR 23.0000 128.500 main 691 673 __________O___ -1 23.0000 128.500 7 11 345
1889284N18137 1889 31 WP MM NOT_NAMED 1889-10-13 18:00:00 NR 23.3428 128.411 main 673 658 __________P___ -1 23.3428 128.411 7 11 352
1889284N18137 1889 31 WP MM NOT_NAMED 1889-10-13 21:00:00 NR 23.8764 128.371 main 658 649 __________P___ -1 23.8764 128.371 7 11 2
1889284N18137 1889 31 WP MM NOT_NAMED 1889-10-14 00:00:00 NR 24.4143 128.442 main 649 649 __________P___ -1 24.4143 128.442 7 11 12
1889284N18137 1889 31 WP MM NOT_NAMED 1889-10-14 03:00:00 NR 24.9344 128.618 main 664 664 __________P___ -1 24.9344 128.618 7 11 19
1889284N18137 1889 31 WP MM NOT_NAMED 1889-10-14 04:00:00 NR 25.1000 128.700 main 674 649 __________O___ -1 25.1000 128.700 7 11 26
1889284N18137 1889 31 WP MM NOT_NAMED 1889-10-14 06:00:00 NR 25.4062 128.871 main 649 598 __________P___ -1 25.4062 128.871 7 11 32
1889284N18137 1889 31 WP MM NOT_NAMED 1889-10-14 09:00:00 NR 25.8401 129.216 main 598 535 __________P___ -1 25.8401 129.216 7 11 39
1889284N18137 1889 31 WP MM NOT_NAMED 1889-10-14 12:00:00 NR 26.2549 129.644 main 535 483 __________P___ -1 26.2549 129.644 7 12 45
1889284N18137 1889 31 WP MM NOT_NAMED 1889-10-14 15:00:00 NR 26.6631 130.130 main 483 470 __________P___ -1 26.6631 130.130 7 12 47
1889284N18137 1889 31 WP MM NOT_NAMED 1889-10-14 16:00:00 NR 26.8000 130.300 main 470 435 __________O___ -1 26.8000 130.300 7 12 48
1889284N18137 1889 31 WP MM NOT_NAMED 1889-10-14 18:00:00 NR 27.0771 130.649 main 435 392 __________P___ -1 27.0771 130.649 7 13 49
1889284N18137 1889 31 WP MM NOT_NAMED 1889-10-14 21:00:00 NR 27.4995 131.188 main 393 356 __________P___ -1 27.4995 131.188 7 13 49
1889284N18137 1889 31 WP MM NOT_NAMED 1889-10-15 00:00:00 NR 27.9273 131.743 main 359 328 __________P___ -1 27.9273 131.743 7 13 49
1889284N18137 1889 31 WP MM NOT_NAMED 1889-10-15 03:00:00 NR 28.3569 132.310 main 328 323 __________P___ -1 28.3569 132.310 7 13 49
1889284N18137 1889 31 WP MM NOT_NAMED 1889-10-15 04:00:00 NR 28.5000 132.500 main 328 __________O___ -1 28.5000 132.500 7 13 50

デジタル台風データ・検索

IBTrACS Databaseについて

本データベースは、米国NOAAが公開する1842年以降の世界の熱帯低気圧のベストトラックデータアーカイブInternational Best Track Archive for Climate Stewardship (IBTrACS)を、ウェブで閲覧しやすい形式に変換したものです。

最終更新日:2021-12-03